Time;durP1;ratioP1;P1;durP2;ratioP2;P2;SDS_P1;SDS_P2;PMS_P1;PMS_P2;Temp;Humidity;BMP_temperature;BMP_pressure;BME280_temperature;BME280_humidity;BME280_pressure;Samples;Min_cycle;Max_cycle;Signal;HPM_P1;HPM_P2
2023/10/07 00:00:56;;;;;;;6.75;3.33;;;;;;;12.49;100.00;100842.47;4900198;29;20080;-61
2023/10/07 00:03:23;;;;;;;12.00;3.47;;;;;;;12.54;100.00;100844.66;4883306;29;20475;-61
2023/10/07 00:05:50;;;;;;;12.55;3.35;;;;;;;12.52;100.00;100836.75;4900396;29;20052;-61
2023/10/07 00:08:20;;;;;;;10.13;3.60;;;;;;;12.52;100.00;100831.38;4899813;29;20076;-61
2023/10/07 00:10:51;;;;;;;6.78;3.17;;;;;;;12.54;100.00;100833.88;4899932;29;20084;-61
2023/10/07 00:13:20;;;;;;;11.32;3.70;;;;;;;12.58;100.00;100830.66;4899955;29;20072;-62
2023/10/07 00:15:51;;;;;;;10.45;3.30;;;;;;;12.56;100.00;100815.72;4901348;29;20096;-61
2023/10/07 00:18:19;;;;;;;9.90;3.70;;;;;;;12.58;100.00;100819.91;4904354;29;20135;-61
2023/10/07 00:20:51;;;;;;;9.02;3.72;;;;;;;12.60;100.00;100819.75;4903273;29;20413;-60
2023/10/07 00:23:26;;;;;;;10.27;3.15;;;;;;;12.64;100.00;100827.31;4903761;29;20187;-60
2023/10/07 00:25:57;;;;;;;11.10;3.83;;;;;;;12.56;100.00;100810.34;4903363;29;20108;-62
2023/10/07 00:31:02;;;;;;;7.00;2.97;;;;;;;12.60;100.00;100823.28;4902926;29;20204;-62
2023/10/07 00:34:02;;;;;;;7.57;3.10;;;;;;;12.62;100.00;100812.31;4903411;29;20060;-62
2023/10/07 00:39:07;;;;;;;9.05;3.33;;;;;;;12.66;100.00;100802.94;4883931;29;20057;-60
2023/10/07 00:41:46;;;;;;;9.13;3.90;;;;;;;12.67;100.00;100788.44;4883575;29;20053;-61
2023/10/07 00:44:17;;;;;;;8.52;3.42;;;;;;;12.68;100.00;100787.44;4884620;29;20116;-61
2023/10/07 00:49:43;;;;;;;12.90;3.60;;;;;;;12.68;100.00;100798.19;4884560;29;19948;-61
2023/10/07 00:52:14;;;;;;;8.52;3.53;;;;;;;12.72;100.00;100791.44;4884741;29;20417;-60
2023/10/07 00:57:23;;;;;;;11.70;4.00;;;;;;;12.63;100.00;100792.50;4883898;29;20105;-60
2023/10/07 00:59:51;;;;;;;9.65;3.90;;;;;;;12.64;100.00;100794.16;4867551;29;20052;-60
2023/10/07 01:02:29;;;;;;;12.38;4.00;;;;;;;12.63;100.00;100779.88;4883621;29;20071;-61
2023/10/07 01:05:13;;;;;;;11.88;3.83;;;;;;;12.65;100.00;100780.53;4883508;29;20044;-60
2023/10/07 01:07:48;;;;;;;15.38;3.63;;;;;;;12.65;100.00;100771.63;4883890;29;20048;-61
2023/10/07 01:10:14;;;;;;;10.63;3.20;;;;;;;12.67;100.00;100764.22;4884222;29;20109;-61
2023/10/07 01:12:44;;;;;;;11.23;3.78;;;;;;;12.63;100.00;100769.13;4882896;29;20049;-61
2023/10/07 01:15:35;;;;;;;12.18;3.78;;;;;;;12.62;100.00;100766.56;4884196;29;20044;-61
2023/10/07 01:18:05;;;;;;;12.65;3.92;;;;;;;12.62;100.00;100764.72;4883168;29;20109;-62
2023/10/07 01:23:23;;;;;;;12.50;3.75;;;;;;;12.63;100.00;100768.28;4882882;29;20061;-61
2023/10/07 01:25:53;;;;;;;14.80;3.47;;;;;;;12.58;100.00;100765.25;4883162;29;20100;-61
2023/10/07 01:28:21;;;;;;;18.05;4.15;;;;;;;12.59;100.00;100772.28;4882095;29;20090;-60
2023/10/07 01:33:47;;;;;;;10.18;3.60;;;;;;;12.68;100.00;100770.44;4884528;29;20104;-61
2023/10/07 01:36:24;;;;;;;8.90;3.38;;;;;;;12.65;100.00;100768.94;4887528;29;20056;-59
2023/10/07 01:38:53;;;;;;;11.02;3.70;;;;;;;12.69;100.00;100770.25;4901739;29;20051;-60
2023/10/07 01:41:22;;;;;;;8.43;3.63;;;;;;;12.58;100.00;100759.88;4901976;29;20056;-60
2023/10/07 01:43:59;;;;;;;11.90;3.63;;;;;;;12.67;100.00;100764.22;4902272;29;20045;-60
2023/10/07 01:46:28;;;;;;;12.00;4.05;;;;;;;12.69;100.00;100747.88;4901848;29;20079;-60
2023/10/07 01:48:57;;;;;;;12.40;4.07;;;;;;;12.64;100.00;100753.78;4902923;29;20049;-61
2023/10/07 01:51:27;;;;;;;9.07;3.80;;;;;;;12.61;100.00;100738.00;4901078;29;20056;-60
2023/10/07 01:53:56;;;;;;;9.60;3.97;;;;;;;12.58;100.00;100749.09;4902334;29;20044;-60
2023/10/07 01:56:26;;;;;;;9.93;3.50;;;;;;;12.62;100.00;100743.19;4901568;29;20060;-62
2023/10/07 01:59:09;;;;;;;12.05;3.47;;;;;;;12.58;100.00;100746.41;4901841;29;20545;-61
2023/10/07 02:01:41;;;;;;;11.60;3.85;;;;;;;12.59;100.00;100740.00;4901867;29;20055;-60
2023/10/07 02:04:18;;;;;;;15.35;4.03;;;;;;;12.58;100.00;100744.56;4902179;29;20044;-60
2023/10/07 02:07:22;;;;;;;14.38;4.53;;;;;;;12.58;100.00;100732.94;4902531;29;20116;-62
2023/10/07 02:09:48;;;;;;;11.57;3.75;;;;;;;12.57;100.00;100736.66;4900707;29;20044;-61
2023/10/07 02:12:18;;;;;;;12.60;3.50;;;;;;;12.55;100.00;100736.81;4899269;29;20048;-60
2023/10/07 02:14:45;;;;;;;11.13;3.45;;;;;;;12.50;100.00;100722.22;4900117;29;20083;-60
2023/10/07 02:17:12;;;;;;;10.43;4.30;;;;;;;12.51;100.00;100718.50;4900384;29;20053;-61
2023/10/07 02:19:41;;;;;;;14.00;3.83;;;;;;;12.57;100.00;100720.50;4899913;29;20052;-62
2023/10/07 02:22:09;;;;;;;17.50;4.30;;;;;;;12.53;100.00;100714.66;4900969;29;20055;-66
2023/10/07 02:24:43;;;;;;;9.70;3.28;;;;;;;12.56;100.00;100730.44;4884999;29;20048;-60
2023/10/07 02:27:19;;;;;;;9.52;4.25;;;;;;;12.52;100.00;100722.88;4899955;29;20047;-64
2023/10/07 02:29:56;;;;;;;12.05;4.20;;;;;;;12.53;100.00;100713.81;4901043;29;20085;-60
2023/10/07 02:32:23;;;;;;;12.60;4.13;;;;;;;12.44;100.00;100704.91;4900777;29;20052;-61
2023/10/07 02:34:53;;;;;;;12.32;3.58;;;;;;;12.45;100.00;100711.13;4898715;29;20048;-61
2023/10/07 02:37:31;;;;;;;12.23;3.92;;;;;;;12.38;100.00;100693.00;4885932;29;20108;-61
2023/10/07 02:40:19;;;;;;;10.02;4.22;;;;;;;12.33;100.00;100692.66;4880882;29;20053;-62
2023/10/07 02:42:46;;;;;;;15.07;4.50;;;;;;;12.22;100.00;100678.75;4882085;29;20052;-61
2023/10/07 02:45:20;;;;;;;8.05;3.30;;;;;;;12.08;100.00;100656.09;4881919;29;20049;-61
2023/10/07 02:47:53;;;;;;;12.93;4.30;;;;;;;12.07;100.00;100668.72;4881356;29;20052;-60
2023/10/07 02:50:20;;;;;;;12.45;4.20;;;;;;;12.07;100.00;100659.78;4881853;29;20060;-60
2023/10/07 02:52:47;;;;;;;9.88;3.97;;;;;;;11.99;100.00;100646.34;4880941;29;20049;-61
2023/10/07 02:57:45;;;;;;;14.55;4.25;;;;;;;11.78;100.00;100615.47;4880927;29;20112;-60
2023/10/07 03:00:16;;;;;;;13.10;4.15;;;;;;;11.83;100.00;100625.72;4880890;29;20497;-60
2023/10/07 03:02:49;;;;;;;11.77;4.45;;;;;;;11.84;100.00;100630.94;4880338;29;20053;-59
2023/10/07 03:05:29;;;;;;;15.45;3.72;;;;;;;11.96;100.00;100634.09;4881178;29;20502;-60
2023/10/07 03:08:02;;;;;;;12.90;4.20;;;;;;;11.86;100.00;100617.31;4880572;29;20093;-61
2023/10/07 03:10:43;;;;;;;13.32;4.70;;;;;;;11.87;100.00;100621.69;4880994;29;20077;-61
2023/10/07 03:13:15;;;;;;;16.40;4.60;;;;;;;11.70;100.00;100612.81;4880167;29;20077;-61
2023/10/07 03:15:46;;;;;;;11.95;3.95;;;;;;;11.65;100.00;100590.94;4880725;29;20049;-60
2023/10/07 03:18:22;;;;;;;11.50;4.53;;;;;;;11.56;100.00;100586.63;4881004;29;20045;-60
2023/10/07 03:23:37;;;;;;;12.80;4.25;;;;;;;11.38;100.00;100555.41;4881049;29;20057;-61
2023/10/07 03:28:36;;;;;;;16.50;4.82;;;;;;;11.36;100.00;100545.84;4881175;29;20073;-61
2023/10/07 03:31:12;;;;;;;13.65;4.38;;;;;;;11.33;100.00;100544.31;4880723;29;20049;-60
2023/10/07 03:33:44;;;;;;;14.52;4.47;;;;;;;11.23;100.00;100544.47;4879806;29;20052;-61
2023/10/07 03:39:56;;;;;;;11.40;4.15;;;;;;;11.23;100.00;100538.28;4898893;29;20710;-60
2023/10/07 03:41:55;;;;;;;11.32;4.57;;;;;;;11.28;100.00;100541.31;4878845;29;20057;-62
2023/10/07 03:44:27;;;;;;;12.85;4.85;;;;;;;11.36;100.00;100561.94;4898843;29;20060;-61
2023/10/07 03:46:55;;;;;;;8.57;4.13;;;;;;;11.38;100.00;100560.78;4898958;29;20064;-61
2023/10/07 03:49:23;;;;;;;12.25;4.07;;;;;;;11.40;100.00;100558.75;4899046;29;20203;-60
2023/10/07 03:52:03;;;;;;;13.10;4.03;;;;;;;11.62;100.00;100577.84;4888625;29;20064;-60
2023/10/07 03:54:30;;;;;;;11.00;3.47;;;;;;;11.53;100.00;100577.03;4905544;29;20052;-61
2023/10/07 03:57:00;;;;;;;10.30;3.38;;;;;;;11.58;100.00;100589.94;4905261;29;20048;-61
2023/10/07 03:59:31;;;;;;;11.18;3.85;;;;;;;11.60;100.00;100588.78;4905015;29;20056;-61
2023/10/07 04:01:58;;;;;;;9.68;4.18;;;;;;;11.53;100.00;100582.41;4905232;29;20063;-61
2023/10/07 04:04:25;;;;;;;12.10;4.38;;;;;;;11.57;100.00;100580.22;4904685;29;20128;-60
2023/10/07 04:06:52;;;;;;;8.32;3.72;;;;;;;11.58;100.00;100580.03;4904977;29;20084;-61
2023/10/07 04:09:27;;;;;;;11.95;4.22;;;;;;;11.52;100.00;100587.94;4905161;29;20052;-60
2023/10/07 04:11:53;;;;;;;11.88;4.32;;;;;;;11.50;100.00;100581.91;4906044;29;20059;-60
2023/10/07 04:14:27;;;;;;;16.23;4.47;;;;;;;11.50;100.00;100577.38;4905299;29;20104;-60
2023/10/07 04:16:59;;;;;;;10.35;3.60;;;;;;;11.67;100.00;100602.41;4904201;29;20076;-61
2023/10/07 04:21:55;;;;;;;18.58;4.95;;;;;;;11.57;100.00;100596.34;4904634;29;20580;-60
2023/10/07 04:24:28;;;;;;;11.52;3.88;;;;;;;11.62;100.00;100591.28;4903822;29;20052;-60
2023/10/07 04:27:01;;;;;;;18.08;3.88;;;;;;;11.60;100.00;100593.31;4887376;29;20052;-60
2023/10/07 04:29:29;;;;;;;13.32;3.92;;;;;;;11.36;100.00;100565.47;4903435;29;20066;-61
2023/10/07 04:31:58;;;;;;;19.77;4.03;;;;;;;11.40;100.00;100561.44;4904541;29;20055;-60
2023/10/07 04:34:33;;;;;;;13.20;4.20;;;;;;;11.47;100.00;100561.59;4887313;29;20064;-61
2023/10/07 04:39:39;;;;;;;8.98;4.22;;;;;;;11.45;100.00;100559.09;4885154;29;20045;-62
2023/10/07 04:42:20;;;;;;;12.05;3.92;;;;;;;11.40;100.00;100558.75;4885948;29;20076;-61
2023/10/07 04:50:08;;;;;;;13.35;4.15;;;;;;;11.36;100.00;100537.78;4884728;29;20079;-62
2023/10/07 04:52:42;;;;;;;12.10;4.20;;;;;;;11.28;100.00;100522.50;4885400;29;20064;-63
2023/10/07 04:55:19;;;;;;;15.05;4.50;;;;;;;11.35;100.00;100530.72;4884727;29;20045;-61
2023/10/07 05:03:00;;;;;;;11.98;3.95;;;;;;;11.34;100.00;100521.81;4883599;29;20057;-63
2023/10/07 05:05:30;;;;;;;13.45;4.50;;;;;;;10.80;100.00;100451.75;4883232;29;20060;-60
2023/10/07 05:08:08;;;;;;;11.25;5.18;;;;;;;10.61;100.00;100428.75;4883817;29;20093;-60
2023/10/07 05:10:39;;;;;;;10.75;4.00;;;;;;;10.48;100.00;100398.91;4882698;29;20053;-60
2023/10/07 05:13:07;;;;;;;6.30;2.67;;;;;;;10.47;100.00;100384.63;4882638;29;20044;-61
2023/10/07 05:15:39;;;;;;;12.70;3.78;;;;;;;10.43;100.00;100391.34;4883231;29;20136;-61
2023/10/07 05:18:05;;;;;;;12.77;3.97;;;;;;;10.45;100.00;100400.06;4883811;29;20490;-61
2023/10/07 05:20:36;;;;;;;7.40;4.00;;;;;;;10.79;100.00;100439.34;4883048;29;20451;-60
2023/10/07 05:23:03;;;;;;;12.43;4.10;;;;;;;10.69;100.00;100433.31;4882355;29;20056;-60
2023/10/07 05:25:35;;;;;;;10.32;3.80;;;;;;;10.71;100.00;100439.31;4882611;29;20101;-60
2023/10/07 05:28:10;;;;;;;8.93;3.63;;;;;;;10.81;100.00;100458.78;4881909;29;20053;-61
2023/10/07 05:30:38;;;;;;;17.70;4.53;;;;;;;10.78;100.00;100447.53;4882814;29;20056;-60
2023/10/07 05:33:08;;;;;;;11.35;3.90;;;;;;;10.62;100.00;100424.25;4882240;29;20063;-62
2023/10/07 05:35:38;;;;;;;13.82;3.85;;;;;;;10.76;100.00;100439.69;4882052;29;20049;-60
2023/10/07 05:38:09;;;;;;;11.60;4.25;;;;;;;10.70;100.00;100430.44;4884250;29;20045;-62
2023/10/07 05:40:36;;;;;;;13.13;3.95;;;;;;;10.81;100.00;100449.91;4883347;29;20047;-60
2023/10/07 05:43:08;;;;;;;12.20;3.97;;;;;;;10.85;100.00;100454.75;4882473;29;20045;-60
2023/10/07 05:45:35;;;;;;;;;;;;;;;10.90;100.00;100459.63;4884635;29;20540;-60
2023/10/07 05:48:03;;;;;;;15.00;4.22;;;;;;;10.86;100.00;100459.13;4897629;29;19927;-60
2023/10/07 05:50:32;;;;;;;16.52;4.88;;;;;;;10.93;100.00;100472.72;4883290;29;20044;-61
2023/10/07 05:52:59;;;;;;;16.77;4.60;;;;;;;11.01;100.00;100479.91;4883115;29;20053;-62
2023/10/07 05:55:29;;;;;;;17.23;6.70;;;;;;;11.04;100.00;100490.31;4882999;29;20495;-60
2023/10/07 05:57:55;;;;;;;20.42;5.60;;;;;;;10.70;100.00;100448.38;4883589;29;20073;-61
2023/10/07 06:00:24;;;;;;;15.05;5.22;;;;;;;10.81;100.00;100453.41;4882435;29;20076;-60
2023/10/07 06:02:53;;;;;;;15.82;4.40;;;;;;;10.83;100.00;100461.31;4883203;29;20053;-60
2023/10/07 06:05:25;;;;;;;13.13;4.55;;;;;;;10.84;100.00;100473.72;4882765;29;20458;-60
2023/10/07 06:07:51;;;;;;;;;;;;;;;10.89;100.00;100482.09;4884119;29;20112;-59
2023/10/07 06:10:18;;;;;;;11.52;3.92;;;;;;;10.92;100.00;100479.06;4883803;29;19951;-59
2023/10/07 06:12:45;;;;;;;10.90;4.50;;;;;;;10.90;100.00;100481.94;4883163;29;20049;-62
2023/10/07 06:15:11;;;;;;;17.23;4.63;;;;;;;10.80;100.00;100472.38;4882895;29;20466;-59
2023/10/07 06:17:41;;;;;;;15.75;3.80;;;;;;;10.73;100.00;100459.63;4883111;29;20060;-62
2023/10/07 06:20:18;;;;;;;11.95;4.50;;;;;;;10.79;100.00;100471.53;4884165;29;20045;-59
2023/10/07 06:22:48;;;;;;;12.05;4.25;;;;;;;10.54;100.00;100446.53;4883442;29;20108;-61
2023/10/07 06:25:15;;;;;;;14.02;5.03;;;;;;;10.48;100.00;100447.19;4882702;29;20059;-59
2023/10/07 06:27:45;;;;;;;12.05;4.18;;;;;;;10.71;100.00;100480.41;4883022;29;20049;-60
2023/10/07 06:30:19;;;;;;;12.38;3.90;;;;;;;10.59;100.00;100470.19;4882925;29;20053;-60
2023/10/07 06:32:55;;;;;;;11.65;4.13;;;;;;;10.25;100.00;100420.16;4882419;29;20099;-60
2023/10/07 06:35:23;;;;;;;17.77;4.72;;;;;;;9.80;100.00;100346.38;4882348;29;20569;-60
2023/10/07 06:37:52;;;;;;;13.93;5.07;;;;;;;9.09;100.00;100246.78;4900311;29;20045;-60
2023/10/07 06:40:25;;;;;;;13.23;4.75;;;;;;;7.89;100.00;100059.78;4900636;29;20470;-60
2023/10/07 06:42:55;;;;;;;15.00;5.60;;;;;;;1.67;100.00;99063.50;4883999;29;20052;-60
2023/10/07 06:45:22;;;;;;;21.75;5.40;;;;;;;3.74;100.00;99388.06;4899920;29;20056;-60
2023/10/07 06:47:49;;;;;;;12.50;4.65;;;;;;;3.08;100.00;99283.06;4900316;29;20068;-60
2023/10/07 06:50:27;;;;;;;13.60;4.35;;;;;;;2.35;100.00;99180.53;4899699;29;20059;-60
2023/10/07 06:52:57;;;;;;;15.32;4.95;;;;;;;4.76;100.00;99587.81;4900600;29;20075;-62
2023/10/07 06:55:24;;;;;;;11.77;5.10;;;;;;;6.13;100.00;99795.84;4900928;29;20058;-60
2023/10/07 06:57:56;;;;;;;11.70;4.50;;;;;;;6.45;100.00;99845.06;4900732;29;20590;-60
2023/10/07 07:00:24;;;;;;;17.13;5.57;;;;;;;5.18;100.00;99656.31;4900324;29;20057;-60
2023/10/07 07:02:57;;;;;;;8.80;4.63;;;;;;;4.15;100.00;99481.38;4900447;29;20056;-60
2023/10/07 07:05:26;;;;;;;12.85;5.00;;;;;;;-0.59;100.00;98721.88;4900177;29;20112;-60
2023/10/07 07:07:53;;;;;;;15.00;5.13;;;;;;;-17.78;100.00;95958.78;4900522;29;20052;-61
2023/10/07 07:10:27;;;;;;;13.55;4.95;;;;;;;-27.81;100.00;94379.28;4899645;29;20057;-60
2023/10/07 07:13:12;;;;;;;14.38;4.75;;;;;;;-25.16;100.00;94812.22;4900738;29;20052;-61
2023/10/07 07:15:43;;;;;;;11.07;5.10;;;;;;;-14.54;100.00;96512.97;4900429;29;20041;-62
2023/10/07 07:20:49;;;;;;;15.93;5.20;;;;;;;-12.56;100.00;96823.53;4900798;29;20049;-61
2023/10/07 07:23:17;;;;;;;12.77;5.70;;;;;;;-5.80;100.00;97913.56;4900858;29;20057;-60
2023/10/07 07:25:49;;;;;;;25.10;5.88;;;;;;;-9.58;100.00;97317.09;4899084;29;20477;-60
2023/10/07 07:28:17;;;;;;;13.80;5.03;;;;;;;-4.49;100.00;98118.75;4900592;29;20072;-60
2023/10/07 07:30:45;;;;;;;22.70;6.18;;;;;;;-4.82;100.00;98064.88;4900842;29;20052;-60
2023/10/07 07:33:12;;;;;;;12.98;5.57;;;;;;;-2.96;100.00;98367.75;4900635;29;20144;-61
2023/10/07 07:35:43;;;;;;;11.80;5.78;;;;;;;-2.19;100.00;98482.69;4899217;29;20470;-61
2023/10/07 07:38:29;;;;;;;12.10;5.03;;;;;;;-0.54;100.00;98740.72;4882139;29;20049;-60
2023/10/07 07:41:08;;;;;;;12.35;5.35;;;;;;;-0.05;100.00;98825.91;4881594;29;20049;-60
2023/10/07 07:43:38;;;;;;;15.25;5.47;;;;;;;0.32;100.00;98866.56;4881756;29;20145;-60
2023/10/07 07:46:18;;;;;;;9.93;4.18;;;;;;;2.20;100.00;99168.75;4882030;29;20430;-62
2023/10/07 07:48:52;;;;;;;12.47;4.80;;;;;;;3.58;100.00;99388.69;4881443;29;20406;-61
2023/10/07 07:51:24;;;;;;;12.05;5.38;;;;;;;3.50;100.00;99383.31;4879689;29;20053;-61
2023/10/07 07:53:51;;;;;;;12.45;4.40;;;;;;;4.71;100.00;99575.94;4864929;29;20108;-61
2023/10/07 07:56:19;;;;;;;15.00;4.82;;;;;;;4.81;100.00;99592.66;4881639;29;20064;-61
2023/10/07 07:58:48;;;;;;;10.93;4.22;;;;;;;4.39;100.00;99512.69;4880889;29;20053;-60
2023/10/07 08:01:19;;;;;;;14.82;4.72;;;;;;;5.26;100.00;99648.41;4881637;29;20053;-60
2023/10/07 08:03:47;;;;;;;9.88;4.40;;;;;;;6.07;100.00;99766.34;4881657;29;20052;-60
2023/10/07 08:06:20;;;;;;;12.25;4.10;;;;;;;6.18;100.00;99780.28;4881199;29;20069;-63
2023/10/07 08:08:53;;;;;;;11.75;3.60;;;;;;;6.74;100.00;99878.59;4880589;29;20494;-61
2023/10/07 08:11:22;;;;;;;11.10;4.22;;;;;;;6.60;100.00;99856.88;4880686;29;20065;-61
2023/10/07 08:13:48;;;;;;;8.45;3.72;;;;;;;6.77;100.00;99887.13;4880444;29;20467;-61
2023/10/07 08:16:19;;;;;;;9.82;4.10;;;;;;;6.32;100.00;99812.66;4880259;29;20486;-61
2023/10/07 08:18:53;;;;;;;11.02;4.28;;;;;;;6.04;100.00;99764.81;4880490;29;20068;-61
2023/10/07 08:21:28;;;;;;;14.45;4.28;;;;;;;6.30;100.00;99804.00;4879654;29;20131;-60
2023/10/07 08:24:01;;;;;;;10.75;4.03;;;;;;;4.61;100.00;99537.97;4880007;29;20131;-62
2023/10/07 08:26:28;;;;;;;8.95;4.32;;;;;;;5.22;100.00;99631.09;4880232;29;20131;-61
2023/10/07 08:31:45;;;;;;;10.45;4.15;;;;;;;2.25;100.00;99152.44;4879699;29;20057;-61
2023/10/07 08:34:15;;;;;;;10.18;4.28;;;;;;;0.77;100.00;98907.16;4880545;29;20053;-61
2023/10/07 08:36:44;;;;;;;12.85;4.28;;;;;;;2.19;100.00;99122.94;4890103;29;20131;-61
2023/10/07 08:39:11;;;;;;;7.78;3.95;;;;;;;2.56;100.00;99187.41;4902837;29;20056;-61
2023/10/07 08:41:40;;;;;;;9.75;3.65;;;;;;;2.94;100.00;99233.22;4902651;29;20079;-62
2023/10/07 08:44:16;;;;;;;7.40;3.55;;;;;;;2.85;100.00;99235.75;4902310;29;20049;-61
2023/10/07 08:47:39;;;;;;;9.60;3.88;;;;;;;4.54;100.00;99495.25;4884860;29;20052;-61
2023/10/07 08:49:35;;;;;;;;;;;;;;;2.85;100.00;99243.72;4893210;29;20055;-61
2023/10/07 08:52:08;;;;;;;9.18;3.78;;;;;;;4.12;100.00;99439.22;4902484;29;19959;-61
2023/10/07 08:54:44;;;;;;;10.00;3.75;;;;;;;5.47;100.00;99642.78;4902628;29;20072;-61
2023/10/07 08:57:34;;;;;;;11.10;4.18;;;;;;;5.63;100.00;99646.53;4902283;29;20119;-61
2023/10/07 09:00:05;;;;;;;7.78;4.15;;;;;;;7.02;100.00;99848.13;4901816;29;20045;-61
2023/10/07 09:02:39;;;;;;;11.57;3.92;;;;;;;7.46;100.00;99922.69;4901160;29;20044;-61
2023/10/07 09:05:09;;;;;;;10.98;3.65;;;;;;;7.52;100.00;99926.56;4902674;29;20064;-62
2023/10/07 09:07:36;;;;;;;9.90;3.88;;;;;;;7.58;100.00;99937.44;4902718;29;20064;-61
2023/10/07 09:10:14;;;;;;;8.32;4.10;;;;;;;7.95;100.00;99999.53;4902375;29;20103;-61
2023/10/07 09:12:56;;;;;;;13.40;4.20;;;;;;;7.21;100.00;99878.22;4902505;29;20045;-61
2023/10/07 09:15:28;;;;;;;7.88;3.78;;;;;;;6.89;100.00;99816.56;4902177;29;20049;-61
2023/10/07 09:18:03;;;;;;;8.70;3.90;;;;;;;7.01;100.00;99846.44;4902593;29;20052;-62
2023/10/07 09:20:31;;;;;;;11.70;4.15;;;;;;;5.38;100.00;99589.66;4902480;29;20120;-61
2023/10/07 09:23:00;;;;;;;13.15;4.07;;;;;;;5.39;100.00;99583.38;4902648;29;20052;-61
2023/10/07 09:25:34;;;;;;;10.65;4.15;;;;;;;4.58;100.00;99470.06;4902395;29;20053;-60
2023/10/07 09:28:02;;;;;;;12.13;4.97;;;;;;;4.90;100.00;99521.81;4901692;29;20052;-63
2023/10/07 09:30:38;;;;;;;12.95;4.45;;;;;;;5.22;100.00;99577.91;4901588;29;20063;-62
2023/10/07 09:33:14;;;;;;;9.82;4.00;;;;;;;5.86;100.00;99671.69;4902142;29;20123;-61
2023/10/07 09:35:47;;;;;;;11.00;5.25;;;;;;;5.03;100.00;99531.06;4900881;29;20104;-62
2023/10/07 09:38:33;;;;;;;10.45;5.00;;;;;;;5.63;100.00;99636.75;4882568;29;20049;-61
2023/10/07 09:41:23;;;;;;;8.73;4.68;;;;;;;5.11;100.00;99556.03;4882667;29;20490;-63
2023/10/07 09:43:57;;;;;;;13.00;5.00;;;;;;;5.28;100.00;99584.44;4882919;29;20501;-61
2023/10/07 09:46:25;;;;;;;12.25;5.18;;;;;;;3.79;100.00;99344.19;4882457;29;20053;-62
2023/10/07 09:48:58;;;;;;;11.20;5.60;;;;;;;3.29;100.00;99249.19;4882354;29;20082;-62
2023/10/07 09:51:44;;;;;;;16.45;6.10;;;;;;;-1.35;100.00;98507.72;4883186;29;20125;-61
2023/10/07 09:54:30;;;;;;;19.70;7.25;;;;;;;-4.28;100.00;98022.72;4882962;29;20490;-61
2023/10/07 09:57:22;;;;;;;13.88;6.70;;;;;;;-12.11;100.00;96764.22;4882740;29;20057;-61
2023/10/07 10:03:14;;;;;;;20.65;7.28;;;;;;;-5.85;100.00;97761.69;4863499;29;20045;-62
2023/10/07 10:05:56;;;;;;;16.58;6.25;;;;;;;-5.80;100.00;97768.19;4864059;29;20050;-62
2023/10/07 10:08:44;;;;;;;13.18;7.13;;;;;;;-5.98;100.00;97747.06;4863199;29;20058;-62
2023/10/07 10:11:30;;;;;;;13.00;7.00;;;;;;;-3.32;100.00;98173.28;4846967;29;20037;-62
2023/10/07 10:14:16;;;;;;;19.73;6.93;;;;;;;0.01;100.00;98701.44;4863359;29;20055;-62
2023/10/07 10:16:53;;;;;;;20.67;7.68;;;;;;;-2.96;100.00;98228.72;4862954;29;20102;-62
2023/10/07 10:19:47;;;;;;;16.20;7.15;;;;;;;-4.21;100.00;98045.75;4862936;29;20108;-61
2023/10/07 10:22:24;;;;;;;14.77;8.80;;;;;;;-1.89;100.00;98405.59;4862477;29;20050;-62
2023/10/07 10:24:59;;;;;;;17.38;7.43;;;;;;;-1.01;100.00;98545.78;4863644;29;20053;-61
2023/10/07 10:27:26;;;;;;;18.75;7.90;;;;;;;-0.80;100.00;98573.75;4862284;29;20045;-61
2023/10/07 10:29:55;;;;;;;17.83;8.50;;;;;;;1.80;100.00;98990.00;4862587;29;20132;-62
2023/10/07 10:32:28;;;;;;;18.48;8.13;;;;;;;0.87;100.00;98837.69;4862283;29;20064;-61
2023/10/07 10:35:03;;;;;;;16.80;8.18;;;;;;;1.90;100.00;98995.25;4862502;29;20071;-62
2023/10/07 10:37:33;;;;;;;17.33;8.40;;;;;;;3.53;100.00;99255.72;4847655;29;20573;-62
2023/10/07 10:40:12;;;;;;;17.00;7.93;;;;;;;3.97;100.00;99312.34;4844345;29;20065;-64
2023/10/07 10:42:41;;;;;;;15.32;8.32;;;;;;;1.97;100.00;99000.81;4846044;29;20060;-66
2023/10/07 10:45:29;;;;;;;13.27;7.90;;;;;;;2.89;100.00;99152.41;4835083;29;20061;-61
2023/10/07 10:47:59;;;;;;;15.63;8.57;;;;;;;-0.30;100.00;98645.47;4849136;29;20056;-61
2023/10/07 10:50:29;;;;;;;16.08;8.73;;;;;;;1.87;100.00;98979.66;4849176;29;20078;-61
2023/10/07 10:52:59;;;;;;;14.07;8.10;;;;;;;2.06;100.00;99000.75;4855335;29;20102;-63
2023/10/07 10:55:34;;;;;;;14.02;8.98;;;;;;;-10.12;100.00;97022.28;4855800;29;20054;-61
2023/10/07 10:58:00;;;;;;;16.38;9.63;;;;;;;-86.18;100.00;85281.22;4855227;29;20106;-62
2023/10/07 11:00:28;;;;;;;15.77;9.43;;;;;;;-149.70;100.00;76414.25;4856853;29;20054;-61
2023/10/07 11:02:55;;;;;;;15.90;10.38;;;;;;;-149.70;100.00;76406.13;4874481;29;20113;-62
2023/10/07 11:05:22;;;;;;;17.88;10.73;;;;;;;-149.70;100.00;76410.19;4874507;29;20057;-61
2023/10/07 11:07:50;;;;;;;16.63;10.10;;;;;;;-149.70;100.00;76400.03;4875394;29;20101;-62
2023/10/07 11:10:24;;;;;;;16.92;10.48;;;;;;;-149.70;100.00;76389.84;4875866;29;20061;-62
2023/10/07 11:12:54;;;;;;;15.02;10.30;;;;;;;-149.70;100.00;76383.75;4875561;29;20053;-61
2023/10/07 11:15:29;;;;;;;13.93;9.52;;;;;;;-149.70;100.00;76383.75;4868291;29;20151;-61
2023/10/07 11:17:58;;;;;;;14.75;10.30;;;;;;;-149.70;100.00;76402.06;4868998;29;20051;-61
2023/10/07 11:20:37;;;;;;;16.77;10.60;;;;;;;-149.70;100.00;76404.09;4867837;29;20060;-60
2023/10/07 11:23:06;;;;;;;17.35;10.63;;;;;;;-149.70;100.00;76402.06;4868579;29;20056;-60
2023/10/07 11:25:34;;;;;;;21.13;10.40;;;;;;;-149.70;100.00;76385.78;4869187;29;20055;-60
2023/10/07 11:28:08;;;;;;;18.80;10.43;;;;;;;-149.70;100.00;76387.81;4867367;29;20049;-61
2023/10/07 11:30:46;;;;;;;15.85;10.07;;;;;;;-149.70;100.00;76385.78;4869053;29;20049;-60
2023/10/07 11:33:17;;;;;;;17.30;10.02;;;;;;;-149.70;100.00;76375.63;4868889;29;20049;-61
2023/10/07 11:35:56;;;;;;;15.57;10.32;;;;;;;-149.70;100.00;76373.59;4870434;29;20045;-60
2023/10/07 11:38:25;;;;;;;16.13;9.63;;;;;;;-149.70;100.00;76373.59;4905723;29;20116;-60
2023/10/07 11:40:53;;;;;;;18.65;9.65;;;;;;;-149.70;100.00;76367.47;4905092;29;20060;-60
2023/10/07 11:43:19;;;;;;;19.65;9.93;;;;;;;-149.70;100.00;76365.44;4905407;29;20058;-60
2023/10/07 11:45:47;;;;;;;24.52;10.18;;;;;;;-149.70;100.00;76361.38;4904980;29;20482;-62
2023/10/07 11:48:14;;;;;;;14.85;9.65;;;;;;;-149.70;100.00;76349.19;4904859;29;20048;-60
2023/10/07 11:50:41;;;;;;;14.85;9.88;;;;;;;-149.70;100.00;76336.97;4905448;29;20048;-60
2023/10/07 11:53:07;;;;;;;14.15;9.57;;;;;;;-149.70;100.00;76347.16;4906363;29;20048;-61
2023/10/07 11:55:34;;;;;;;15.27;9.43;;;;;;;-149.70;100.00;76334.94;4906749;29;20473;-60
2023/10/07 11:58:02;;;;;;;27.40;10.43;;;;;;;-149.70;100.00;76326.81;4905580;29;20048;-61
2023/10/07 12:00:31;;;;;;;18.25;11.00;;;;;;;-149.70;100.00;76326.81;4904702;29;20108;-59
2023/10/07 12:02:58;;;;;;;18.25;10.68;;;;;;;-149.70;100.00;76324.78;4905613;29;20052;-60
2023/10/07 12:05:29;;;;;;;19.30;9.90;;;;;;;-149.70;100.00;76339.03;4905813;29;20080;-60
2023/10/07 12:08:01;;;;;;;18.27;11.63;;;;;;;-149.70;100.00;76353.25;4905686;29;20048;-60
2023/10/07 12:10:29;;;;;;;15.65;11.52;;;;;;;-149.70;100.00;76332.91;4906426;29;20497;-60
2023/10/07 12:12:58;;;;;;;17.15;11.82;;;;;;;-149.70;100.00;76347.16;4910496;29;20096;-61
2023/10/07 12:15:25;;;;;;;18.20;12.05;;;;;;;-149.70;100.00;76365.44;4909903;29;20059;-62
2023/10/07 12:17:51;;;;;;;21.00;12.60;;;;;;;-149.70;100.00;76371.56;4909797;29;20060;-61
2023/10/07 12:20:22;;;;;;;18.92;12.57;;;;;;;-149.70;100.00;76371.56;4910346;29;20048;-61
2023/10/07 12:22:49;;;;;;;20.65;12.07;;;;;;;-149.70;100.00;76381.72;4910028;29;20053;-60
2023/10/07 12:25:16;;;;;;;18.42;11.60;;;;;;;-149.70;100.00;76389.84;4910611;29;20052;-61
2023/10/07 12:27:44;;;;;;;16.17;10.35;;;;;;;-149.70;100.00;76385.78;4910203;29;20045;-62